Terminal Aerodrome Forecast
Issued by NWS

Home | Current Version | Previous Version | Text Only | Print | Product List | Glossary On
Versions: 1 2 3 4 5 6 7 8 9 10 11 12 13 14 15 16 17 18 19
000
FTUS46 KEKA 211925 AAA
TAFUKI
TAF AMD
KUKI 211925Z 2119/2218 VRB03KT 6SM -RA BR SCT006 OVC020
      TEMPO 2119/2122 2SM -RA BR BKN006 BKN015
     FM220300 31003KT 3SM BR SCT003 BKN007 OVC015
     FM220700 00000KT 4SM BR SCT003 OVC007
     FM221500 00000KT 5SM BR SCT007 BKN015=

USA.gov is the U.S. government's official web portal to all federal, state and local government web resources and services.